Time;durP1;ratioP1;P1;durP2;ratioP2;P2;SDS_P1;SDS_P2;PMS_P1;PMS_P2;Temp;Humidity;BMP_temperature;BMP_pressure;BME280_temperature;BME280_humidity;BME280_pressure;Samples;Min_cycle;Max_cycle;Signal;HPM_P1;HPM_P2
2024/02/28 00:02:11;;;;;;;9.38;5.68;;;;;;;;;;4892310;29;20048;-71
2024/02/28 00:04:37;;;;;;;9.68;7.03;;;;;;;;;;4889864;29;20067;-71
2024/02/28 00:07:04;;;;;;;8.55;4.38;;;;;;;;;;4891038;29;20044;-70
2024/02/28 00:09:30;;;;;;;5.85;5.25;;;;;;;;;;4892013;29;20032;-71
2024/02/28 00:11:56;;;;;;;8.98;4.93;;;;;;;;;;4889258;29;20047;-71
2024/02/28 00:14:22;;;;;;;8.63;5.60;;;;;;;;;;4893146;29;20105;-71
2024/02/28 00:16:50;;;;;;;8.32;5.68;;;;;;;;;;4877282;29;20033;-72
2024/02/28 00:19:18;;;;;;;5.60;4.90;;;;;;;;;;4889404;29;20041;-71
2024/02/28 00:21:44;;;;;;;6.07;5.25;;;;;;;;;;4890372;29;20088;-70
2024/02/28 00:24:11;;;;;;;7.22;5.70;;;;;;;;;;4890468;29;20053;-71
2024/02/28 00:26:40;;;;;;;6.63;5.30;;;;;;;;;;4887758;29;20059;-71
2024/02/28 00:29:06;;;;;;;5.43;4.78;;;;;;;;;;4888800;29;20039;-71
2024/02/28 00:31:32;;;;;;;8.70;4.35;;;;;;;;;;4888560;29;20131;-71
2024/02/28 00:33:57;;;;;;;7.22;4.82;;;;;;;;;;4889256;29;20155;-71
2024/02/28 00:36:23;;;;;;;7.47;5.68;;;;;;;;;;4891892;29;20041;-71
2024/02/28 00:38:49;;;;;;;6.75;6.20;;;;;;;;;;4890012;29;20040;-71
2024/02/28 00:41:15;;;;;;;11.80;6.10;;;;;;;;;;4891590;29;20059;-71
2024/02/28 00:43:41;;;;;;;7.38;6.10;;;;;;;;;;4888971;29;20421;-72
2024/02/28 00:46:11;;;;;;;8.40;6.25;;;;;;;;;;4890441;29;20036;-71
2024/02/28 00:48:37;;;;;;;8.70;6.72;;;;;;;;;;4889846;29;20047;-71
2024/02/28 00:51:03;;;;;;;5.80;5.25;;;;;;;;;;4888257;29;20033;-70
2024/02/28 00:53:29;;;;;;;13.18;6.03;;;;;;;;;;4889526;29;20540;-71
2024/02/28 00:55:55;;;;;;;13.80;7.45;;;;;;;;;;4887373;29;20064;-71
2024/02/28 00:58:21;;;;;;;11.65;7.13;;;;;;;;;;4886020;29;20032;-70
2024/02/28 01:00:49;;;;;;;21.35;8.45;;;;;;;;;;4886688;29;20060;-70
2024/02/28 01:03:15;;;;;;;9.10;5.68;;;;;;;;;;4884934;29;20502;-70
2024/02/28 01:05:41;;;;;;;5.55;5.05;;;;;;;;;;4887083;29;20065;-71
2024/02/28 01:08:08;;;;;;;13.27;7.35;;;;;;;;;;4891414;29;20123;-70
2024/02/28 01:10:34;;;;;;;7.57;6.53;;;;;;;;;;4889231;29;20037;-71
2024/02/28 01:13:00;;;;;;;6.30;5.57;;;;;;;;;;4888270;29;20140;-71
2024/02/28 01:15:25;;;;;;;6.70;6.00;;;;;;;;;;4883958;29;20048;-71
2024/02/28 01:17:51;;;;;;;9.10;7.32;;;;;;;;;;4889356;29;20032;-71
2024/02/28 01:20:17;;;;;;;9.65;8.23;;;;;;;;;;4888445;29;20383;-71
2024/02/28 01:22:43;;;;;;;7.43;5.55;;;;;;;;;;4888993;29;20056;-71
2024/02/28 01:25:09;;;;;;;9.18;5.30;;;;;;;;;;4889249;29;20048;-71
2024/02/28 01:27:34;;;;;;;5.82;5.30;;;;;;;;;;4887536;29;20048;-70
2024/02/28 01:30:01;;;;;;;6.10;5.28;;;;;;;;;;4888565;29;20486;-70
2024/02/28 01:32:27;;;;;;;4.30;3.90;;;;;;;;;;4892843;29;20028;-70
2024/02/28 01:34:53;;;;;;;8.05;5.53;;;;;;;;;;4871106;29;20045;-70
2024/02/28 01:37:19;;;;;;;5.88;5.18;;;;;;;;;;4870090;29;20041;-70
2024/02/28 01:39:45;;;;;;;11.13;6.40;;;;;;;;;;4869783;29;20032;-70
2024/02/28 01:42:11;;;;;;;11.82;5.00;;;;;;;;;;4872389;29;20415;-71
2024/02/28 01:44:38;;;;;;;11.13;7.05;;;;;;;;;;4883839;29;20048;-70
2024/02/28 01:47:04;;;;;;;5.60;5.10;;;;;;;;;;4886287;29;20028;-71
2024/02/28 01:49:30;;;;;;;7.90;5.63;;;;;;;;;;4890634;29;20041;-71
2024/02/28 01:51:56;;;;;;;18.60;6.55;;;;;;;;;;4887981;29;20037;-71
2024/02/28 01:54:22;;;;;;;6.00;5.40;;;;;;;;;;4871623;29;20059;-71
2024/02/28 01:56:48;;;;;;;6.28;4.97;;;;;;;;;;4889481;29;20029;-70
2024/02/28 01:59:13;;;;;;;3.88;3.55;;;;;;;;;;4890392;29;20063;-71
2024/02/28 02:01:39;;;;;;;7.28;5.80;;;;;;;;;;4891207;29;20412;-70
2024/02/28 02:04:05;;;;;;;7.93;5.70;;;;;;;;;;4887734;29;20064;-71
2024/02/28 02:06:31;;;;;;;7.20;5.78;;;;;;;;;;4886488;29;20044;-77
2024/02/28 02:08:57;;;;;;;7.05;5.53;;;;;;;;;;4890393;29;20048;-78
2024/02/28 02:11:24;;;;;;;10.32;6.72;;;;;;;;;;4888300;29;20036;-77
2024/02/28 02:13:51;;;;;;;11.98;5.43;;;;;;;;;;4873503;29;20071;-77
2024/02/28 02:16:17;;;;;;;4.45;3.72;;;;;;;;;;4891932;29;20286;-77
2024/02/28 02:18:43;;;;;;;8.05;5.20;;;;;;;;;;4888541;29;20041;-77
2024/02/28 02:21:09;;;;;;;11.40;5.95;;;;;;;;;;4874866;29;20116;-77
2024/02/28 02:23:35;;;;;;;11.40;7.13;;;;;;;;;;4893963;29;20116;-77
2024/02/28 02:26:01;;;;;;;5.82;5.13;;;;;;;;;;4904275;29;20565;-77
2024/02/28 02:28:27;;;;;;;5.53;4.85;;;;;;;;;;4906315;29;20148;-76
2024/02/28 02:30:53;;;;;;;4.97;4.50;;;;;;;;;;4905958;29;20036;-76
2024/02/28 02:33:19;;;;;;;6.20;5.03;;;;;;;;;;4905801;29;20056;-77
2024/02/28 02:35:44;;;;;;;7.78;5.38;;;;;;;;;;4903586;29;20040;-77
2024/02/28 02:38:10;;;;;;;5.90;5.15;;;;;;;;;;4898689;29;20035;-78
2024/02/28 02:40:36;;;;;;;5.18;4.40;;;;;;;;;;4875566;29;20032;-77
2024/02/28 02:43:02;;;;;;;7.50;6.13;;;;;;;;;;4886537;29;20068;-77
2024/02/28 02:45:28;;;;;;;7.55;4.90;;;;;;;;;;4886882;29;20080;-78
2024/02/28 02:47:54;;;;;;;4.72;4.32;;;;;;;;;;4889566;29;20036;-76
2024/02/28 02:50:20;;;;;;;4.57;4.07;;;;;;;;;;4891829;29;20123;-77
2024/02/28 02:52:45;;;;;;;10.27;5.00;;;;;;;;;;4891974;29;20043;-77
2024/02/28 02:55:11;;;;;;;7.05;4.78;;;;;;;;;;4893363;29;20044;-77
2024/02/28 02:57:37;;;;;;;5.00;4.30;;;;;;;;;;4890666;29;20048;-77
2024/02/28 03:00:03;;;;;;;10.23;6.03;;;;;;;;;;4893362;29;20469;-77
2024/02/28 03:02:31;;;;;;;6.78;4.25;;;;;;;;;;4892689;29;20513;-76
2024/02/28 03:04:56;;;;;;;7.47;5.95;;;;;;;;;;4888567;29;20055;-77
2024/02/28 03:07:22;;;;;;;7.53;5.50;;;;;;;;;;4876954;29;20417;-77
2024/02/28 03:09:48;;;;;;;6.80;5.32;;;;;;;;;;4893375;29;20036;-76
2024/02/28 03:12:14;;;;;;;7.82;6.65;;;;;;;;;;4894337;29;20067;-76
2024/02/28 03:14:39;;;;;;;10.38;5.40;;;;;;;;;;4891783;29;20406;-76
2024/02/28 03:17:05;;;;;;;7.90;6.28;;;;;;;;;;4874783;29;20573;-77
2024/02/28 03:19:31;;;;;;;8.25;6.38;;;;;;;;;;4895023;29;20052;-77
2024/02/28 03:21:57;;;;;;;12.35;6.07;;;;;;;;;;4890616;29;20306;-77
2024/02/28 03:24:23;;;;;;;11.73;7.25;;;;;;;;;;4888902;29;20087;-77
2024/02/28 03:26:49;;;;;;;7.35;5.53;;;;;;;;;;4893492;29;20040;-78
2024/02/28 03:29:14;;;;;;;6.55;4.90;;;;;;;;;;4875143;29;20063;-78
2024/02/28 03:31:40;;;;;;;7.35;5.05;;;;;;;;;;4890353;29;20037;-77
2024/02/28 03:34:06;;;;;;;9.90;7.28;;;;;;;;;;4889339;29;20052;-78
2024/02/28 03:36:32;;;;;;;7.07;5.97;;;;;;;;;;4894071;29;20123;-76
2024/02/28 03:38:58;;;;;;;8.65;5.20;;;;;;;;;;4889026;29;20036;-77
2024/02/28 03:41:24;;;;;;;7.28;4.50;;;;;;;;;;4888922;29;20041;-78
2024/02/28 03:43:50;;;;;;;6.93;6.22;;;;;;;;;;4887836;29;20055;-75
2024/02/28 03:46:15;;;;;;;5.38;4.85;;;;;;;;;;4881042;29;20037;-77
2024/02/28 03:48:41;;;;;;;4.10;3.75;;;;;;;;;;4878154;29;20490;-77
2024/02/28 03:51:07;;;;;;;9.65;5.78;;;;;;;;;;4869189;29;20037;-76
2024/02/28 03:53:33;;;;;;;6.70;5.50;;;;;;;;;;4874755;29;20060;-76
2024/02/28 03:55:59;;;;;;;4.10;3.80;;;;;;;;;;4891948;29;20033;-76
2024/02/28 03:58:24;;;;;;;4.70;4.13;;;;;;;;;;4893284;29;20033;-75
2024/02/28 04:00:50;;;;;;;5.72;4.10;;;;;;;;;;4890321;29;20485;-76
2024/02/28 04:03:16;;;;;;;5.68;4.38;;;;;;;;;;4889634;29;20048;-75
2024/02/28 04:05:42;;;;;;;5.25;3.20;;;;;;;;;;4886654;29;20044;-75
2024/02/28 04:08:08;;;;;;;7.60;4.93;;;;;;;;;;4894797;29;20107;-77
2024/02/28 04:10:34;;;;;;;5.32;4.93;;;;;;;;;;4893918;29;20043;-74
2024/02/28 04:13:00;;;;;;;5.40;4.53;;;;;;;;;;4892554;29;20025;-76
2024/02/28 04:15:26;;;;;;;5.28;4.80;;;;;;;;;;4892883;29;20044;-77
2024/02/28 04:17:52;;;;;;;5.05;3.95;;;;;;;;;;4871764;29;20029;-76
2024/02/28 04:20:18;;;;;;;4.55;3.53;;;;;;;;;;4887369;29;20517;-77
2024/02/28 04:22:44;;;;;;;6.28;4.82;;;;;;;;;;4889852;29;20051;-76
2024/02/28 04:25:10;;;;;;;4.72;4.22;;;;;;;;;;4888319;29;20475;-77
2024/02/28 04:27:36;;;;;;;6.32;5.53;;;;;;;;;;4893968;29;20036;-75
2024/02/28 04:30:02;;;;;;;6.47;5.88;;;;;;;;;;4890712;29;20482;-76
2024/02/28 04:32:29;;;;;;;11.57;4.93;;;;;;;;;;4886610;29;20031;-77
2024/02/28 04:34:55;;;;;;;6.47;5.88;;;;;;;;;;4884478;29;20453;-77
2024/02/28 04:37:21;;;;;;;7.05;5.07;;;;;;;;;;4884071;29;20475;-76
2024/02/28 04:39:47;;;;;;;8.73;6.50;;;;;;;;;;4862206;29;20044;-76
2024/02/28 04:42:13;;;;;;;6.85;5.97;;;;;;;;;;4891837;29;20129;-78
2024/02/28 04:44:39;;;;;;;6.85;5.75;;;;;;;;;;4895343;29;20139;-78
2024/02/28 04:47:05;;;;;;;11.05;5.78;;;;;;;;;;4892014;29;20064;-78
2024/02/28 04:49:31;;;;;;;10.50;5.97;;;;;;;;;;4886628;29;20608;-76
2024/02/28 04:51:57;;;;;;;8.50;5.65;;;;;;;;;;4889429;29;20047;-78
2024/02/28 04:54:22;;;;;;;10.10;6.28;;;;;;;;;;4886004;29;20045;-77
2024/02/28 04:56:48;;;;;;;6.28;4.57;;;;;;;;;;4878501;29;20566;-77
2024/02/28 04:59:14;;;;;;;8.02;4.47;;;;;;;;;;4885966;29;20045;-77
2024/02/28 05:01:41;;;;;;;7.72;4.80;;;;;;;;;;4888097;29;20045;-77
2024/02/28 05:04:07;;;;;;;4.68;3.65;;;;;;;;;;4887860;29;20057;-77
2024/02/28 05:06:33;;;;;;;5.97;4.15;;;;;;;;;;4878350;29;20610;-78
2024/02/28 05:08:59;;;;;;;6.00;3.67;;;;;;;;;;4894749;29;20037;-79
2024/02/28 05:11:25;;;;;;;10.98;4.93;;;;;;;;;;4892337;29;20080;-78
2024/02/28 05:13:51;;;;;;;8.25;4.88;;;;;;;;;;4898049;29;20052;-77
2024/02/28 05:16:17;;;;;;;4.10;3.70;;;;;;;;;;4890118;29;20041;-76
2024/02/28 05:18:46;;;;;;;6.78;3.88;;;;;;;;;;4892252;29;20029;-76
2024/02/28 05:21:12;;;;;;;4.60;4.13;;;;;;;;;;4888663;29;20055;-76
2024/02/28 05:23:38;;;;;;;7.38;5.35;;;;;;;;;;4887698;29;20558;-75
2024/02/28 05:26:06;;;;;;;6.55;5.07;;;;;;;;;;4888064;29;20060;-76
2024/02/28 05:28:33;;;;;;;16.80;5.03;;;;;;;;;;4884765;29;20520;-76
2024/02/28 05:30:59;;;;;;;5.95;5.22;;;;;;;;;;4887698;29;20035;-77
2024/02/28 05:33:25;;;;;;;7.72;5.15;;;;;;;;;;4885500;29;20047;-76
2024/02/28 05:35:51;;;;;;;6.10;4.35;;;;;;;;;;4886806;29;20478;-80
2024/02/28 05:38:17;;;;;;;6.93;4.80;;;;;;;;;;4895341;29;20626;-80
2024/02/28 05:40:43;;;;;;;7.88;5.10;;;;;;;;;;4898910;29;20048;-80
2024/02/28 05:43:08;;;;;;;6.50;5.10;;;;;;;;;;4896724;29;20473;-79
2024/02/28 05:45:34;;;;;;;5.63;4.15;;;;;;;;;;4890045;29;20549;-76
2024/02/28 05:48:00;;;;;;;5.55;4.47;;;;;;;;;;4892067;29;20040;-78
2024/02/28 05:50:26;;;;;;;4.82;4.43;;;;;;;;;;4887900;29;20533;-78
2024/02/28 05:52:52;;;;;;;6.32;5.00;;;;;;;;;;4889182;29;20031;-80
2024/02/28 05:55:18;;;;;;;5.57;3.92;;;;;;;;;;4916146;29;20084;-82
2024/02/28 05:57:43;;;;;;;5.57;4.55;;;;;;;;;;4914552;29;20041;-78
2024/02/28 06:00:10;;;;;;;6.38;4.22;;;;;;;;;;4909992;29;20141;-82
2024/02/28 06:02:37;;;;;;;6.28;3.95;;;;;;;;;;4899849;29;20109;-80
2024/02/28 06:05:03;;;;;;;6.10;4.70;;;;;;;;;;4894826;29;20094;-79
2024/02/28 06:07:29;;;;;;;4.43;4.00;;;;;;;;;;4890904;29;20046;-78
2024/02/28 06:09:55;;;;;;;6.20;4.72;;;;;;;;;;4893266;29;20507;-78
2024/02/28 06:12:21;;;;;;;4.05;3.65;;;;;;;;;;4893019;29;20049;-81
2024/02/28 06:14:47;;;;;;;5.30;4.45;;;;;;;;;;4889440;29;20048;-79
2024/02/28 06:17:13;;;;;;;4.97;4.55;;;;;;;;;;4892230;29;20044;-81
2024/02/28 06:19:39;;;;;;;4.05;3.65;;;;;;;;;;4892933;29;20069;-79
2024/02/28 06:22:04;;;;;;;6.70;4.43;;;;;;;;;;4898674;29;20139;-80
2024/02/28 06:24:33;;;;;;;6.65;5.13;;;;;;;;;;4900242;29;20068;-80
2024/02/28 06:26:59;;;;;;;4.68;4.03;;;;;;;;;;4900619;29;20131;-81
2024/02/28 06:29:25;;;;;;;5.00;4.40;;;;;;;;;;4895416;29;20068;-80
2024/02/28 06:31:51;;;;;;;9.50;5.25;;;;;;;;;;4892556;29;20048;-80
2024/02/28 06:34:18;;;;;;;5.15;4.22;;;;;;;;;;4889619;29;20549;-78
2024/02/28 06:36:44;;;;;;;7.65;5.10;;;;;;;;;;4874666;29;20036;-75
2024/02/28 06:39:10;;;;;;;8.32;4.88;;;;;;;;;;4886242;29;20052;-76
2024/02/28 06:41:55;;;;;;;5.78;4.00;;;;;;;;;;4887053;29;20067;-76
2024/02/28 06:44:21;;;;;;;5.63;4.93;;;;;;;;;;4866509;29;20053;-79
2024/02/28 06:46:47;;;;;;;4.70;3.15;;;;;;;;;;4885730;29;20043;-79
2024/02/28 06:49:14;;;;;;;6.78;4.35;;;;;;;;;;4886809;29;20047;-76
2024/02/28 06:51:40;;;;;;;5.47;3.63;;;;;;;;;;4889475;29;20068;-76
2024/02/28 06:54:05;;;;;;;5.88;4.97;;;;;;;;;;4887270;29;20532;-75
2024/02/28 06:56:31;;;;;;;4.80;4.30;;;;;;;;;;4871250;29;20036;-75
2024/02/28 06:58:57;;;;;;;5.60;4.75;;;;;;;;;;4887919;29;20041;-78
2024/02/28 07:01:23;;;;;;;7.88;4.68;;;;;;;;;;4887697;29;20379;-78
2024/02/28 07:03:49;;;;;;;8.93;4.20;;;;;;;;;;4885641;29;20055;-77
2024/02/28 07:06:14;;;;;;;7.88;5.30;;;;;;;;;;4883320;29;20048;-77
2024/02/28 07:08:40;;;;;;;4.15;3.75;;;;;;;;;;4884604;29;20039;-78
2024/02/28 07:11:12;;;;;;;6.57;4.85;;;;;;;;;;4887397;29;20037;-77
2024/02/28 07:13:38;;;;;;;11.68;5.57;;;;;;;;;;4865420;29;20042;-78
2024/02/28 07:16:04;;;;;;;4.00;3.70;;;;;;;;;;4886978;29;20045;-79
2024/02/28 07:18:30;;;;;;;8.75;5.00;;;;;;;;;;4869474;29;20049;-79
2024/02/28 07:20:56;;;;;;;9.65;4.93;;;;;;;;;;4874473;29;20120;-78
2024/02/28 07:23:21;;;;;;;6.03;5.47;;;;;;;;;;4878882;29;20055;-79
2024/02/28 07:25:47;;;;;;;5.00;4.60;;;;;;;;;;4892610;29;20048;-79
2024/02/28 07:28:13;;;;;;;4.18;3.85;;;;;;;;;;4889186;29;20040;-77
2024/02/28 07:30:39;;;;;;;6.47;4.72;;;;;;;;;;4890623;29;20044;-77
2024/02/28 07:33:05;;;;;;;8.30;5.20;;;;;;;;;;4892442;29;20025;-78
2024/02/28 07:35:31;;;;;;;5.50;4.60;;;;;;;;;;4882489;29;20068;-77
2024/02/28 07:37:57;;;;;;;12.13;4.75;;;;;;;;;;4886623;29;20091;-78
2024/02/28 07:40:22;;;;;;;7.28;5.13;;;;;;;;;;4892933;29;20048;-77
2024/02/28 07:42:48;;;;;;;9.55;5.22;;;;;;;;;;4888064;29;20196;-78
2024/02/28 07:45:14;;;;;;;8.50;4.40;;;;;;;;;;4888700;29;20048;-76
2024/02/28 07:47:40;;;;;;;9.80;5.88;;;;;;;;;;4885482;29;20164;-77
2024/02/28 07:50:06;;;;;;;9.00;5.68;;;;;;;;;;4892293;29;20521;-77
2024/02/28 07:52:34;;;;;;;9.38;6.70;;;;;;;;;;4886957;29;20097;-77
2024/02/28 07:55:01;;;;;;;7.45;5.35;;;;;;;;;;4888648;29;20286;-75
2024/02/28 07:57:28;;;;;;;10.93;6.03;;;;;;;;;;4885827;29;20429;-77
2024/02/28 07:59:54;;;;;;;6.50;5.20;;;;;;;;;;4889803;29;20057;-76
2024/02/28 08:02:20;;;;;;;10.77;4.80;;;;;;;;;;4882875;29;20132;-77
2024/02/28 08:04:46;;;;;;;6.97;5.47;;;;;;;;;;4889223;29;20165;-76
2024/02/28 08:07:12;;;;;;;9.05;5.20;;;;;;;;;;4892019;29;20043;-76
2024/02/28 08:09:38;;;;;;;7.53;5.70;;;;;;;;;;4889390;29;20072;-77
2024/02/28 08:12:04;;;;;;;13.52;6.10;;;;;;;;;;4889773;29;20052;-77
2024/02/28 08:14:29;;;;;;;6.90;5.43;;;;;;;;;;4887610;29;20045;-77
2024/02/28 08:16:55;;;;;;;8.95;6.25;;;;;;;;;;4890274;29;20536;-79
2024/02/28 08:19:21;;;;;;;6.43;5.07;;;;;;;;;;4895576;29;20036;-78
2024/02/28 08:21:47;;;;;;;8.75;6.97;;;;;;;;;;4888334;29;20048;-76
2024/02/28 08:24:13;;;;;;;9.75;6.05;;;;;;;;;;4886627;29;20442;-77
2024/02/28 08:26:40;;;;;;;12.27;5.85;;;;;;;;;;4888970;29;20437;-75
2024/02/28 08:29:06;;;;;;;8.32;6.47;;;;;;;;;;4885647;29;20075;-76
2024/02/28 08:31:33;;;;;;;7.45;5.50;;;;;;;;;;4887970;29;20431;-76
2024/02/28 08:33:59;;;;;;;7.03;5.15;;;;;;;;;;4887327;29;20435;-76
2024/02/28 08:36:24;;;;;;;8.05;5.22;;;;;;;;;;4905131;29;20033;-80
2024/02/28 08:38:51;;;;;;;13.52;6.07;;;;;;;;;;4899889;29;20125;-80
2024/02/28 08:41:17;;;;;;;9.40;6.43;;;;;;;;;;4918598;29;20072;-78
2024/02/28 08:43:43;;;;;;;10.00;5.93;;;;;;;;;;4913486;29;20056;-79
2024/02/28 08:46:08;;;;;;;8.38;5.65;;;;;;;;;;4911799;29;20037;-82
2024/02/28 08:48:34;;;;;;;7.65;6.22;;;;;;;;;;4897217;29;20033;-78
2024/02/28 08:51:00;;;;;;;4.75;4.32;;;;;;;;;;4900807;29;20029;-79
2024/02/28 08:53:26;;;;;;;10.75;6.82;;;;;;;;;;4888912;29;20032;-79
2024/02/28 08:55:52;;;;;;;14.48;6.57;;;;;;;;;;4893248;29;20048;-79
2024/02/28 08:58:18;;;;;;;7.55;5.13;;;;;;;;;;4894613;29;20535;-78
2024/02/28 09:00:44;;;;;;;11.73;6.13;;;;;;;;;;4885258;29;20562;-79
2024/02/28 09:03:10;;;;;;;6.90;5.38;;;;;;;;;;4888223;29;20061;-79
2024/02/28 09:05:36;;;;;;;10.48;5.45;;;;;;;;;;4887215;29;20079;-79
2024/02/28 09:08:02;;;;;;;14.00;6.25;;;;;;;;;;4890634;29;20037;-80
2024/02/28 09:10:31;;;;;;;17.17;7.05;;;;;;;;;;4888663;29;20100;-79
2024/02/28 09:12:56;;;;;;;13.30;8.38;;;;;;;;;;4884488;29;20048;-78
2024/02/28 09:15:22;;;;;;;10.13;6.38;;;;;;;;;;4885805;29;20109;-78
2024/02/28 09:17:48;;;;;;;12.77;6.43;;;;;;;;;;4887046;29;20462;-79
2024/02/28 09:20:15;;;;;;;8.73;6.65;;;;;;;;;;4887327;29;20061;-78
2024/02/28 09:22:41;;;;;;;11.40;6.57;;;;;;;;;;4889152;29;20100;-79
2024/02/28 09:25:08;;;;;;;10.85;6.68;;;;;;;;;;4881911;29;20127;-78
2024/02/28 09:27:37;;;;;;;10.57;6.78;;;;;;;;;;4888767;29;20080;-79
2024/02/28 09:30:03;;;;;;;8.68;6.95;;;;;;;;;;4896372;29;20037;-79
2024/02/28 09:32:30;;;;;;;8.05;6.30;;;;;;;;;;4887586;29;20466;-78
2024/02/28 09:34:56;;;;;;;9.02;6.70;;;;;;;;;;4889159;29;20127;-78
2024/02/28 09:37:24;;;;;;;9.75;6.22;;;;;;;;;;4902976;29;20402;-78
2024/02/28 09:39:50;;;;;;;9.48;7.15;;;;;;;;;;4897789;29;20032;-79
2024/02/28 09:42:16;;;;;;;9.75;6.85;;;;;;;;;;4898222;29;20064;-79
2024/02/28 09:44:42;;;;;;;11.93;6.53;;;;;;;;;;4896448;29;20045;-79
2024/02/28 09:47:08;;;;;;;7.60;6.50;;;;;;;;;;4895163;29;20446;-79
2024/02/28 09:49:34;;;;;;;11.32;7.38;;;;;;;;;;4885694;29;20057;-79
2024/02/28 09:52:00;;;;;;;7.28;6.57;;;;;;;;;;4891976;29;20157;-79
2024/02/28 09:54:26;;;;;;;7.10;6.40;;;;;;;;;;4885757;29;20041;-79
2024/02/28 09:56:51;;;;;;;6.93;6.07;;;;;;;;;;4869611;29;20103;-79
2024/02/28 09:59:18;;;;;;;6.32;5.35;;;;;;;;;;4884961;29;20053;-78
2024/02/28 10:01:44;;;;;;;12.80;7.18;;;;;;;;;;4888917;29;20036;-79
2024/02/28 10:04:12;;;;;;;8.13;6.97;;;;;;;;;;4883268;29;20079;-79
2024/02/28 10:06:39;;;;;;;9.02;8.13;;;;;;;;;;4888019;29;20041;-79
2024/02/28 10:09:05;;;;;;;18.10;7.25;;;;;;;;;;4886832;29;20119;-79
2024/02/28 10:11:33;;;;;;;15.32;8.07;;;;;;;;;;4887328;29;20100;-76
2024/02/28 10:13:59;;;;;;;10.38;5.88;;;;;;;;;;4887781;29;20517;-76
2024/02/28 10:16:25;;;;;;;10.77;6.88;;;;;;;;;;4890796;29;20040;-76
2024/02/28 10:18:51;;;;;;;9.52;7.00;;;;;;;;;;4888232;29;20033;-76
2024/02/28 10:21:17;;;;;;;12.75;7.47;;;;;;;;;;4881461;29;20041;-77
2024/02/28 10:23:44;;;;;;;14.65;7.55;;;;;;;;;;4885206;29;20143;-77
2024/02/28 10:26:10;;;;;;;9.80;6.85;;;;;;;;;;4886289;29;20076;-76
2024/02/28 10:28:39;;;;;;;14.82;6.53;;;;;;;;;;4884564;29;20041;-77
2024/02/28 10:31:05;;;;;;;8.85;6.45;;;;;;;;;;4884886;29;20040;-77
2024/02/28 10:33:33;;;;;;;9.50;5.93;;;;;;;;;;4888333;29;20044;-77
2024/02/28 10:35:59;;;;;;;12.30;7.78;;;;;;;;;;4887477;29;20044;-77
2024/02/28 10:38:26;;;;;;;10.05;7.35;;;;;;;;;;4884954;29;20040;-77
2024/02/28 10:40:52;;;;;;;13.73;7.20;;;;;;;;;;4881897;29;20068;-77
2024/02/28 10:43:18;;;;;;;12.73;7.15;;;;;;;;;;4882580;29;20076;-77
2024/02/28 10:45:43;;;;;;;12.43;8.07;;;;;;;;;;4885080;29;20233;-77
2024/02/28 10:48:09;;;;;;;15.10;6.07;;;;;;;;;;4888472;29;20045;-76
2024/02/28 10:50:35;;;;;;;7.55;6.15;;;;;;;;;;4885699;29;20048;-77
2024/02/28 10:53:02;;;;;;;20.58;7.47;;;;;;;;;;4879770;29;20061;-76
2024/02/28 10:55:35;;;;;;;8.02;6.40;;;;;;;;;;4884655;29;20029;-77
2024/02/28 10:58:07;;;;;;;12.57;7.97;;;;;;;;;;4883723;29;20094;-77
2024/02/28 11:00:34;;;;;;;9.55;7.15;;;;;;;;;;4882718;29;20064;-77
2024/02/28 11:03:00;;;;;;;12.48;6.82;;;;;;;;;;4884802;29;20109;-76
2024/02/28 11:05:35;;;;;;;9.27;7.03;;;;;;;;;;4884383;29;20033;-77
2024/02/28 11:08:01;;;;;;;9.32;6.25;;;;;;;;;;4882606;29;20045;-77
2024/02/28 11:10:32;;;;;;;12.02;7.03;;;;;;;;;;4882079;29;20093;-77
2024/02/28 11:12:58;;;;;;;15.55;7.10;;;;;;;;;;4888630;29;20048;-76
2024/02/28 11:15:24;;;;;;;8.07;6.30;;;;;;;;;;4888292;29;20868;-77
2024/02/28 11:17:50;;;;;;;13.15;6.70;;;;;;;;;;4891309;29;20064;-77
2024/02/28 11:20:16;;;;;;;12.68;8.35;;;;;;;;;;4888440;29;20543;-77
2024/02/28 11:22:42;;;;;;;10.98;6.97;;;;;;;;;;4890620;29;20626;-78
2024/02/28 11:25:08;;;;;;;13.38;7.05;;;;;;;;;;4886734;29;20033;-77
2024/02/28 11:27:33;;;;;;;12.20;6.80;;;;;;;;;;4885891;29;20043;-77
2024/02/28 11:30:01;;;;;;;13.57;7.07;;;;;;;;;;4879671;29;20477;-76
2024/02/28 11:32:32;;;;;;;15.65;9.48;;;;;;;;;;4885365;29;20521;-77
2024/02/28 11:35:00;;;;;;;9.30;6.30;;;;;;;;;;4886915;29;20096;-76
2024/02/28 11:37:26;;;;;;;8.45;5.70;;;;;;;;;;4892242;29;20465;-77
2024/02/28 11:39:52;;;;;;;13.23;7.25;;;;;;;;;;4889854;29;20041;-77
2024/02/28 11:42:18;;;;;;;11.70;7.18;;;;;;;;;;4888027;29;20072;-77
2024/02/28 11:44:44;;;;;;;17.85;7.70;;;;;;;;;;4884690;29;20545;-77
2024/02/28 11:47:10;;;;;;;9.98;7.32;;;;;;;;;;4879758;29;20064;-75
2024/02/28 11:49:39;;;;;;;10.63;6.70;;;;;;;;;;4871948;29;20041;-75
2024/02/28 11:52:05;;;;;;;13.48;7.30;;;;;;;;;;4888543;29;20064;-76
2024/02/28 11:54:31;;;;;;;12.30;7.75;;;;;;;;;;4888693;29;20044;-76
2024/02/28 11:56:57;;;;;;;13.52;8.18;;;;;;;;;;4885551;29;20413;-75
2024/02/28 11:59:24;;;;;;;11.07;7.30;;;;;;;;;;4885346;29;20564;-75
2024/02/28 12:01:52;;;;;;;10.38;6.13;;;;;;;;;;4887458;29;20040;-75
2024/02/28 12:04:18;;;;;;;8.27;7.32;;;;;;;;;;4886219;29;20516;-76
2024/02/28 12:06:43;;;;;;;13.27;6.80;;;;;;;;;;4890168;29;20036;-76
2024/02/28 12:09:10;;;;;;;10.55;6.82;;;;;;;;;;4885294;29;20037;-76
2024/02/28 12:11:37;;;;;;;10.75;6.28;;;;;;;;;;4869798;29;20502;-76
2024/02/28 12:14:08;;;;;;;13.20;6.95;;;;;;;;;;4872790;29;20124;-76
2024/02/28 12:16:38;;;;;;;11.05;6.40;;;;;;;;;;4877738;29;20068;-75
2024/02/28 12:19:10;;;;;;;11.63;5.80;;;;;;;;;;4883382;29;20112;-76
2024/02/28 12:21:37;;;;;;;8.55;6.25;;;;;;;;;;4887509;29;20494;-77
2024/02/28 12:24:04;;;;;;;7.68;6.80;;;;;;;;;;4880280;29;20144;-78
2024/02/28 12:26:30;;;;;;;13.93;6.60;;;;;;;;;;4886840;29;20141;-77
2024/02/28 12:28:56;;;;;;;9.13;5.60;;;;;;;;;;4887933;29;20044;-77
2024/02/28 12:31:22;;;;;;;7.65;5.53;;;;;;;;;;4886856;29;20037;-77
2024/02/28 12:33:48;;;;;;;9.55;6.72;;;;;;;;;;4888537;29;20542;-77
2024/02/28 12:36:14;;;;;;;10.63;6.82;;;;;;;;;;4885817;29;20040;-77
2024/02/28 12:38:41;;;;;;;8.10;6.72;;;;;;;;;;4888167;29;20048;-76
2024/02/28 12:41:07;;;;;;;6.03;5.43;;;;;;;;;;4887179;29;20505;-77
2024/02/28 12:43:33;;;;;;;9.32;7.25;;;;;;;;;;4887211;29;20070;-77
2024/02/28 12:45:59;;;;;;;7.28;5.93;;;;;;;;;;4890933;29;20032;-77
2024/02/28 12:48:25;;;;;;;9.68;6.22;;;;;;;;;;4890476;29;20068;-76
2024/02/28 12:50:51;;;;;;;9.35;5.90;;;;;;;;;;4887485;29;20423;-77
2024/02/28 12:53:17;;;;;;;8.30;5.90;;;;;;;;;;4896529;29;20044;-78
2024/02/28 12:55:44;;;;;;;14.32;6.80;;;;;;;;;;4899869;29;20451;-78
2024/02/28 12:58:10;;;;;;;8.05;5.82;;;;;;;;;;4898549;29;20041;-77
2024/02/28 13:00:36;;;;;;;13.95;6.93;;;;;;;;;;4898272;29;20101;-77
2024/02/28 13:03:03;;;;;;;10.75;7.25;;;;;;;;;;4885885;29;20517;-77
2024/02/28 13:05:29;;;;;;;11.52;8.18;;;;;;;;;;4886176;29;20060;-76
2024/02/28 13:07:55;;;;;;;13.77;7.28;;;;;;;;;;4889057;29;20044;-77
2024/02/28 13:10:21;;;;;;;13.25;8.18;;;;;;;;;;4886176;29;20112;-77
2024/02/28 13:12:47;;;;;;;14.10;7.35;;;;;;;;;;4887014;29;20429;-77
2024/02/28 13:15:13;;;;;;;14.13;7.88;;;;;;;;;;4872644;29;20040;-77
2024/02/28 13:17:41;;;;;;;15.77;7.68;;;;;;;;;;4862758;29;20041;-76
2024/02/28 13:20:07;;;;;;;10.20;6.43;;;;;;;;;;4870847;29;20119;-76
2024/02/28 13:22:33;;;;;;;8.27;6.82;;;;;;;;;;4884732;29;20056;-76
2024/02/28 13:25:00;;;;;;;9.70;6.78;;;;;;;;;;4884148;29;20073;-76
2024/02/28 13:27:26;;;;;;;14.10;7.50;;;;;;;;;;4887096;29;20072;-77
2024/02/28 13:29:52;;;;;;;12.32;7.18;;;;;;;;;;4870017;29;20028;-77
2024/02/28 13:32:17;;;;;;;10.98;6.70;;;;;;;;;;4886685;29;20045;-77
2024/02/28 13:34:43;;;;;;;53.45;18.00;;;;;;;;;;4883912;29;20041;-77
2024/02/28 13:37:09;;;;;;;63.20;20.05;;;;;;;;;;4889115;29;20049;-77
2024/02/28 13:39:35;;;;;;;70.28;21.02;;;;;;;;;;4891894;29;20044;-76
2024/02/28 13:42:03;;;;;;;34.38;13.70;;;;;;;;;;4892691;29;20045;-76
2024/02/28 13:44:29;;;;;;;49.58;15.63;;;;;;;;;;4881107;29;20818;-76
2024/02/28 13:46:54;;;;;;;44.45;15.60;;;;;;;;;;4885709;29;20036;-77
2024/02/28 13:49:20;;;;;;;37.80;15.60;;;;;;;;;;4887455;29;20547;-76
2024/02/28 13:51:47;;;;;;;27.08;13.15;;;;;;;;;;4880448;29;20040;-77
2024/02/28 13:54:13;;;;;;;43.60;15.60;;;;;;;;;;4870034;29;20048;-77
2024/02/28 13:56:39;;;;;;;34.15;12.52;;;;;;;;;;4864098;29;20135;-76
2024/02/28 13:59:06;;;;;;;34.60;14.48;;;;;;;;;;4867116;29;20158;-76
2024/02/28 14:01:32;;;;;;;24.23;11.85;;;;;;;;;;4865240;29;20041;-76
2024/02/28 14:03:57;;;;;;;25.73;9.57;;;;;;;;;;4875932;29;20065;-76
2024/02/28 14:06:23;;;;;;;37.45;11.07;;;;;;;;;;4882859;29;20033;-76
2024/02/28 14:08:51;;;;;;;21.65;9.93;;;;;;;;;;4867269;29;20032;-77
2024/02/28 14:11:17;;;;;;;27.67;12.43;;;;;;;;;;4886500;29;20044;-77
2024/02/28 14:13:43;;;;;;;30.35;12.73;;;;;;;;;;4883546;29;20044;-76
2024/02/28 14:16:09;;;;;;;41.35;17.05;;;;;;;;;;4884205;29;20067;-77
2024/02/28 14:18:35;;;;;;;29.83;11.75;;;;;;;;;;4882626;29;20162;-76
2024/02/28 14:21:04;;;;;;;12.15;8.43;;;;;;;;;;4867096;29;20040;-76
2024/02/28 14:23:30;;;;;;;14.27;8.18;;;;;;;;;;4882397;29;20081;-77
2024/02/28 14:25:56;;;;;;;13.45;8.10;;;;;;;;;;4883990;29;20047;-76
2024/02/28 14:28:22;;;;;;;32.75;14.43;;;;;;;;;;4882725;29;20212;-77
2024/02/28 14:30:49;;;;;;;30.70;12.88;;;;;;;;;;4883107;29;20093;-76
2024/02/28 14:33:15;;;;;;;22.65;11.38;;;;;;;;;;4883035;29;20039;-76